Time;durP1;ratioP1;P1;durP2;ratioP2;P2;SDS_P1;SDS_P2;PMS_P1;PMS_P2;Temp;Humidity;BMP_temperature;BMP_pressure;BME280_temperature;BME280_humidity;BME280_pressure;Samples;Min_cycle;Max_cycle;Signal;HPM_P1;HPM_P2
2020/12/17 00:03:30;;;;;;;1999.90;999.90;;;;;;;6.69;75.45;101650.66;15861974;28;20088;-57
2020/12/17 00:11:03;;;;;;;1999.90;999.90;;;;;;;6.80;75.10;101651.44;15853069;28;20484;-59
2020/12/17 00:18:36;;;;;;;1999.90;999.90;;;;;;;7.16;73.97;101641.75;15861047;28;20075;-59
2020/12/17 00:26:12;;;;;;;1999.90;999.90;;;;;;;7.14;74.15;101635.69;15856015;28;20485;-60
2020/12/17 00:33:45;;;;;;;1999.90;999.90;;;;;;;7.21;73.30;101650.06;15870186;28;20043;-58
2020/12/17 00:41:18;;;;;;;1999.90;999.90;;;;;;;7.11;73.85;101639.03;15851215;28;20122;-59
2020/12/17 00:48:51;;;;;;;1999.90;999.90;;;;;;;6.87;74.49;101626.94;15851194;28;20096;-60
2020/12/17 00:56:27;;;;;;;1999.90;999.90;;;;;;;6.82;75.19;101627.00;15850478;28;20040;-59
2020/12/17 01:04:00;;;;;;;1999.90;999.90;;;;;;;6.90;74.55;101627.22;15868812;28;20051;-57
2020/12/17 01:11:33;;;;;;;1999.90;999.90;;;;;;;6.69;75.72;101634.00;15868163;28;20043;-60
2020/12/17 01:19:06;;;;;;;1999.90;999.90;;;;;;;6.80;74.91;101616.19;15868962;28;20048;-57
2020/12/17 01:26:40;;;;;;;1999.90;999.90;;;;;;;6.88;74.91;101604.50;15849489;28;20043;-61
2020/12/17 01:34:12;;;;;;;;;;;;;;;7.08;74.16;101599.91;15849653;28;20476;-56
2020/12/17 01:41:46;;;;;;;1999.90;999.90;;;;;;;6.76;74.98;101576.25;15849021;28;20373;-61
2020/12/17 01:49:23;;;;;;;1999.90;999.90;;;;;;;6.49;75.51;101557.28;15831943;28;20044;-58
2020/12/17 01:57:01;;;;;;;1999.90;999.90;;;;;;;6.27;76.60;101565.97;15866701;28;20039;-60
2020/12/17 02:04:34;;;;;;;1999.90;999.90;;;;;;;6.12;76.84;101560.47;15848754;28;20096;-59
2020/12/17 02:12:08;;;;;;;1999.90;999.90;;;;;;;6.12;76.47;101577.09;15878237;28;20043;-58
2020/12/17 02:19:40;;;;;;;1999.90;999.90;;;;;;;6.32;75.27;101585.34;15859707;28;20105;-60
2020/12/17 02:27:14;;;;;;;1999.90;999.90;;;;;;;6.31;75.30;101593.94;15877550;28;20050;-57
2020/12/17 02:34:46;;;;;;;1999.90;999.90;;;;;;;6.27;74.95;101590.09;15877176;28;20148;-60
2020/12/17 02:42:20;;;;;;;1999.90;999.90;;;;;;;6.00;75.53;101590.44;15877145;28;20047;-60
2020/12/17 02:49:53;;;;;;;1999.90;999.90;;;;;;;6.18;74.92;101584.31;15815211;28;20051;-60
2020/12/17 02:57:26;;;;;;;1999.90;999.90;;;;;;;6.16;74.96;101592.09;15857932;28;20058;-59
2020/12/17 03:04:59;;;;;;;1999.90;999.90;;;;;;;6.05;74.47;101605.13;15857145;28;20516;-59
2020/12/17 03:12:33;;;;;;;1999.90;999.90;;;;;;;5.93;75.40;101596.28;15857307;28;20092;-61
2020/12/17 03:20:06;;;;;;;;;;;;;;;5.63;75.87;101599.09;15856286;28;20093;-61
2020/12/17 03:27:40;;;;;;;1999.90;999.90;;;;;;;5.58;75.57;101577.75;15839024;28;19920;-58
2020/12/17 03:35:13;;;;;;;1999.90;999.90;;;;;;;5.52;75.51;101584.41;15855131;28;20314;-59
2020/12/17 03:42:46;;;;;;;1999.90;999.90;;;;;;;5.20;76.96;101588.28;15854856;28;20431;-59
2020/12/17 03:50:19;;;;;;;1999.90;999.90;;;;;;;4.99;77.15;101583.00;15873757;28;20464;-60
2020/12/17 03:57:53;;;;;;;1999.90;999.90;;;;;;;5.09;77.04;101589.38;15852722;28;20038;-61
2020/12/17 04:05:25;;;;;;;1999.90;999.90;;;;;;;4.83;77.24;101585.75;15853809;28;20489;-62
2020/12/17 04:12:59;;;;;;;1999.90;999.90;;;;;;;5.20;76.28;101595.75;15853373;28;20485;-58
2020/12/17 04:20:31;;;;;;;1999.90;999.90;;;;;;;5.19;75.77;101599.63;15870852;28;20051;-58
2020/12/17 04:28:04;;;;;;;1999.90;999.90;;;;;;;4.84;77.01;101586.59;15834867;28;20073;-59
2020/12/17 04:35:37;;;;;;;1999.90;999.90;;;;;;;4.94;75.67;101586.59;15870161;28;20040;-60
2020/12/17 04:43:11;;;;;;;1999.90;999.90;;;;;;;4.72;76.66;101574.97;15851717;28;20096;-56
2020/12/17 04:50:44;;;;;;;;;;;;;;;4.86;75.91;101568.63;15851287;28;20048;-59
2020/12/17 04:58:20;;;;;;;1999.90;999.90;;;;;;;4.66;76.21;101562.22;15833562;28;19920;-55
2020/12/17 05:05:53;;;;;;;1999.90;999.90;;;;;;;4.59;76.19;101559.72;15867996;28;20062;-54
2020/12/17 05:13:26;;;;;;;1999.90;999.90;;;;;;;4.32;77.70;101563.50;15868229;28;20045;-55
2020/12/17 05:21:00;;;;;;;1999.90;999.90;;;;;;;4.25;77.96;101557.38;15862234;28;20047;-57
2020/12/17 05:28:34;;;;;;;1999.90;999.90;;;;;;;4.28;77.33;101564.31;15870849;28;20093;-55
2020/12/17 05:36:07;;;;;;;1999.90;999.90;;;;;;;4.14;77.98;101561.22;15864446;28;20131;-60
2020/12/17 05:43:42;;;;;;;1999.90;999.90;;;;;;;4.08;78.07;101567.00;15840546;28;20108;-62
2020/12/17 05:51:19;;;;;;;1999.90;999.90;;;;;;;4.13;77.83;101576.13;15880118;28;20039;-59
2020/12/17 05:59:00;;;;;;;1999.90;999.90;;;;;;;4.07;77.32;101570.88;15880408;28;20039;-62
2020/12/17 06:06:43;;;;;;;1999.90;999.90;;;;;;;3.90;78.19;101558.06;15880991;28;20047;-61
2020/12/17 06:14:20;;;;;;;1999.90;999.90;;;;;;;3.84;78.29;101561.88;15837520;28;20059;-59
2020/12/17 06:21:55;;;;;;;1999.90;999.90;;;;;;;3.89;78.18;101553.63;15880792;28;20480;-63
2020/12/17 06:29:41;;;;;;;1999.90;999.90;;;;;;;3.66;78.97;101545.78;15877777;28;20047;-60
2020/12/17 06:37:16;;;;;;;1999.90;999.90;;;;;;;4.07;77.64;101543.25;15858480;28;20039;-60
2020/12/17 06:44:49;;;;;;;1999.90;999.90;;;;;;;4.07;77.09;101538.53;15876190;28;20040;-60
2020/12/17 06:52:22;;;;;;;1999.90;999.90;;;;;;;3.89;77.77;101531.56;15840266;28;20047;-59
2020/12/17 07:00:06;;;;;;;1999.90;999.90;;;;;;;4.22;76.64;101537.75;15857012;28;20051;-61
2020/12/17 07:07:44;;;;;;;1999.90;999.90;;;;;;;4.34;76.15;101552.16;15857806;28;20127;-58
2020/12/17 07:15:35;;;;;;;1999.90;999.90;;;;;;;4.61;75.79;101544.53;15859016;28;20441;-61
2020/12/17 07:23:10;;;;;;;1999.90;999.90;;;;;;;4.78;75.24;101540.66;15876076;28;20397;-63
2020/12/17 07:30:52;;;;;;;1999.90;999.90;;;;;;;4.99;73.87;101560.88;15855335;28;20134;-62
2020/12/17 07:38:26;;;;;;;1999.90;999.90;;;;;;;5.20;72.96;101557.84;15873756;28;20408;-62
2020/12/17 07:46:00;;;;;;;1999.90;999.90;;;;;;;5.01;73.91;101554.00;15873915;28;20044;-60
2020/12/17 07:53:33;;;;;;;1999.90;999.90;;;;;;;5.30;73.65;101575.56;15854539;28;20468;-62
2020/12/17 08:01:08;;;;;;;1999.90;999.90;;;;;;;5.20;74.33;101555.06;15854748;27;20052;-57
2020/12/17 08:08:42;;;;;;;1999.90;999.90;;;;;;;5.43;73.29;101558.41;15905646;27;20078;-58
2020/12/17 08:16:15;;;;;;;1999.90;999.90;;;;;;;5.66;73.19;101551.44;15915920;27;20046;-57
2020/12/17 08:23:48;;;;;;;1999.90;999.90;;;;;;;5.53;72.55;101565.88;15838030;28;20048;-58
2020/12/17 08:31:23;;;;;;;1999.90;999.90;;;;;;;5.87;71.92;101561.38;15869124;28;20051;-57
2020/12/17 08:38:59;;;;;;;1999.90;999.90;;;;;;;5.86;71.99;101568.03;15851218;28;20051;-58
2020/12/17 08:46:36;;;;;;;1999.90;999.90;;;;;;;6.15;70.45;101581.25;15869111;28;20119;-62
2020/12/17 08:54:09;;;;;;;1999.90;999.90;;;;;;;5.97;71.58;101569.69;15869853;28;20050;-60
2020/12/17 09:01:46;;;;;;;1999.90;999.90;;;;;;;6.16;71.09;101581.00;15851494;28;20039;-60
2020/12/17 09:09:25;;;;;;;1999.90;999.90;;;;;;;6.36;70.28;101580.09;15834643;28;20051;-61
2020/12/17 09:17:09;;;;;;;1999.90;999.90;;;;;;;6.81;69.18;101579.00;15868448;28;20548;-58
2020/12/17 09:24:47;;;;;;;1999.90;999.90;;;;;;;6.76;69.84;101576.25;15835646;28;20134;-59
2020/12/17 09:32:21;;;;;;;1999.90;999.90;;;;;;;6.87;69.89;101580.63;15865225;28;20515;-58
2020/12/17 09:39:54;;;;;;;1999.90;999.90;;;;;;;6.96;69.74;101561.41;15793909;28;20097;-61
2020/12/17 09:47:32;;;;;;;1999.90;999.90;;;;;;;7.93;67.35;101585.59;15804270;28;20498;-59
2020/12/17 09:55:08;;;;;;;1999.90;999.90;;;;;;;8.16;66.73;101558.91;15788516;28;20048;-59
2020/12/17 10:02:42;;;;;;;;;;;;;;;8.19;66.43;101549.97;15807390;28;20051;-59
2020/12/17 10:10:15;;;;;;;1999.90;999.90;;;;;;;8.75;65.32;101544.50;15805951;28;19924;-61
2020/12/17 10:17:48;;;;;;;1999.90;999.90;;;;;;;9.44;63.18;101550.38;15806068;28;20401;-57
2020/12/17 10:25:23;;;;;;;1999.90;999.90;;;;;;;9.54;62.28;101537.06;15806211;28;20417;-61
2020/12/17 10:32:57;;;;;;;1999.90;999.90;;;;;;;9.57;61.65;101535.63;15827748;27;20048;-58
2020/12/17 10:40:30;;;;;;;1999.90;999.90;;;;;;;10.90;58.26;101528.97;15908091;27;20461;-61
2020/12/17 10:48:03;;;;;;;1999.90;999.90;;;;;;;11.06;58.17;101529.44;15924391;27;20044;-60
2020/12/17 10:55:36;;;;;;;1999.90;999.90;;;;;;;10.61;58.30;101526.56;15923663;27;20031;-62
2020/12/17 11:03:10;;;;;;;1999.90;999.90;;;;;;;10.26;59.65;101524.56;15908045;27;20046;-59
2020/12/17 11:10:42;;;;;;;1999.90;999.90;;;;;;;9.54;61.72;101527.91;15858505;28;20512;-59
2020/12/17 11:18:16;;;;;;;1999.90;999.90;;;;;;;9.32;62.73;101511.03;15839286;28;20055;-59
2020/12/17 11:25:49;;;;;;;1999.90;999.90;;;;;;;9.86;61.26;101518.66;15926033;27;20040;-59
2020/12/17 11:33:24;;;;;;;1999.90;999.90;;;;;;;9.71;61.22;101518.94;15883738;27;20036;-59
2020/12/17 11:40:56;;;;;;;1999.90;999.90;;;;;;;10.17;60.39;101518.03;15854273;28;20420;-61
2020/12/17 11:48:30;;;;;;;1999.90;999.90;;;;;;;12.47;53.96;101517.47;15871994;28;20040;-58
2020/12/17 11:56:03;;;;;;;1999.90;999.90;;;;;;;14.62;48.45;101512.53;15854462;28;20386;-60
2020/12/17 12:03:36;;;;;;;1999.90;999.90;;;;;;;12.05;54.82;101519.00;15873044;28;20054;-61
2020/12/17 12:11:09;;;;;;;1999.90;999.90;;;;;;;11.42;56.30;101523.75;15853746;28;20420;-58
2020/12/17 12:18:43;;;;;;;1999.90;999.90;;;;;;;11.83;55.77;101512.34;15871407;28;20503;-57
2020/12/17 12:26:16;;;;;;;1999.90;999.90;;;;;;;11.79;55.43;101516.09;15841481;28;20096;-61
2020/12/17 12:33:49;;;;;;;1999.90;999.90;;;;;;;14.16;50.17;101503.03;15844539;28;20043;-61
2020/12/17 12:41:22;;;;;;;1999.90;999.90;;;;;;;17.64;43.07;101491.97;15835388;28;20138;-62
2020/12/17 12:48:55;;;;;;;1999.90;999.90;;;;;;;14.82;47.15;101481.97;15864915;28;20399;-61
2020/12/17 12:56:28;;;;;;;1999.90;999.90;;;;;;;11.57;56.22;101464.69;15864928;28;20065;-62
2020/12/17 13:04:02;;;;;;;1999.90;999.90;;;;;;;11.84;55.93;101488.00;15829272;28;20043;-62
2020/12/17 13:11:35;;;;;;;1999.90;999.90;;;;;;;11.79;57.06;101513.28;15817312;28;20100;-60
2020/12/17 13:19:08;;;;;;;1999.90;999.90;;;;;;;11.35;57.84;101512.19;15813995;28;20051;-62
2020/12/17 13:26:41;;;;;;;1999.90;999.90;;;;;;;11.02;59.13;101513.63;15835859;28;20098;-59
2020/12/17 13:34:15;;;;;;;1999.90;999.90;;;;;;;11.09;59.31;101536.34;15837201;28;20044;-58
2020/12/17 13:41:51;;;;;;;1999.90;999.90;;;;;;;11.34;59.14;101534.88;15864752;28;20048;-60
2020/12/17 13:49:24;;;;;;;1999.90;999.90;;;;;;;10.63;61.47;101526.28;15860855;28;20039;-60
2020/12/17 13:56:57;;;;;;;1999.90;999.90;;;;;;;10.41;62.01;101535.38;15845095;28;20584;-57
2020/12/17 14:04:30;;;;;;;1999.90;999.90;;;;;;;10.25;63.11;101539.66;15863819;28;20126;-64
2020/12/17 14:12:04;;;;;;;1999.90;999.90;;;;;;;9.93;64.54;101538.59;15839911;28;20054;-55
2020/12/17 14:19:38;;;;;;;1999.90;999.90;;;;;;;10.11;64.19;101548.00;15871992;28;20065;-61
2020/12/17 14:27:10;;;;;;;1999.90;999.90;;;;;;;9.99;64.78;101558.81;15873894;28;20520;-59
2020/12/17 14:34:44;;;;;;;1999.90;999.90;;;;;;;9.98;64.80;101585.03;15841923;28;20134;-58
2020/12/17 14:42:17;;;;;;;1999.90;999.90;;;;;;;9.88;65.40;101585.25;15873789;28;20040;-60
2020/12/17 14:49:50;;;;;;;1999.90;999.90;;;;;;;9.78;65.71;101601.00;15857660;27;20040;-55
2020/12/17 14:57:23;;;;;;;1999.90;999.90;;;;;;;9.59;66.71;101604.97;15854138;28;20488;-57
2020/12/17 15:04:59;;;;;;;1999.90;999.90;;;;;;;9.73;66.40;101617.00;15875130;28;20500;-55
2020/12/17 15:12:32;;;;;;;;;;;;;;;9.81;68.36;101621.91;15871449;28;20130;-58
2020/12/17 15:20:05;;;;;;;1999.90;999.90;;;;;;;9.49;70.06;101628.31;15869632;28;20496;-60
2020/12/17 15:27:38;;;;;;;1999.90;999.90;;;;;;;9.10;72.56;101636.97;15870178;28;20437;-59
2020/12/17 15:35:11;;;;;;;1999.90;999.90;;;;;;;9.38;73.45;101649.06;15865280;27;20485;-58
2020/12/17 15:42:44;;;;;;;1999.90;999.90;;;;;;;9.38;72.88;101655.50;15833983;28;20040;-60
2020/12/17 15:50:17;;;;;;;1999.90;999.90;;;;;;;9.39;73.38;101661.91;15869778;28;20386;-60
2020/12/17 15:57:50;;;;;;;1999.90;999.90;;;;;;;9.44;74.00;101665.41;15861198;27;20040;-58
2020/12/17 16:05:23;;;;;;;1999.90;999.90;;;;;;;9.30;75.29;101672.06;15858650;27;20505;-60
2020/12/17 16:12:57;;;;;;;1999.90;999.90;;;;;;;9.53;74.82;101682.28;15865502;28;20047;-59
2020/12/17 16:20:30;;;;;;;1999.90;999.90;;;;;;;9.34;75.90;101693.41;15860380;27;20043;-58
2020/12/17 16:28:04;;;;;;;1999.90;999.90;;;;;;;9.38;76.28;101693.63;15846112;28;20092;-61
2020/12/17 16:35:37;;;;;;;1999.90;999.90;;;;;;;9.48;76.03;101704.63;15866280;28;20135;-60
2020/12/17 16:43:10;;;;;;;1999.90;999.90;;;;;;;9.47;76.79;101700.19;15854646;28;20375;-62
2020/12/17 16:50:44;;;;;;;1999.90;999.90;;;;;;;9.43;77.13;101707.50;15833803;27;20051;-60
2020/12/17 16:58:17;;;;;;;1999.90;999.90;;;;;;;9.27;77.67;101704.09;15828050;28;20054;-59
2020/12/17 17:05:51;;;;;;;1999.90;999.90;;;;;;;9.45;77.55;101711.63;15865829;28;20508;-62
2020/12/17 17:13:23;;;;;;;1999.90;999.90;;;;;;;9.51;77.43;101709.63;15824841;28;20138;-63
2020/12/17 17:20:57;;;;;;;1999.90;999.90;;;;;;;9.65;77.35;101712.47;15858713;28;20154;-60
2020/12/17 17:28:29;;;;;;;1999.90;999.90;;;;;;;9.69;77.49;101716.28;15859461;28;20105;-61
2020/12/17 17:36:04;;;;;;;1999.90;999.90;;;;;;;9.72;77.30;101722.09;15864624;28;20036;-62
2020/12/17 17:43:36;;;;;;;1999.90;999.90;;;;;;;9.68;77.44;101726.59;15839966;28;20500;-62
2020/12/17 17:51:11;;;;;;;1999.90;999.90;;;;;;;9.61;77.68;101737.34;15863720;28;20048;-61
2020/12/17 17:58:43;;;;;;;;;;;;;;;9.67;77.39;101738.06;15840148;28;20461;-59
2020/12/17 18:06:17;;;;;;;1999.90;999.90;;;;;;;9.67;77.75;101741.69;15852178;28;20427;-58
2020/12/17 18:13:50;;;;;;;1999.90;999.90;;;;;;;9.71;77.78;101745.53;15856508;28;20044;-59
2020/12/17 18:21:24;;;;;;;1999.90;999.90;;;;;;;9.71;77.84;101755.84;15876882;28;20057;-58
2020/12/17 18:28:56;;;;;;;1999.90;999.90;;;;;;;9.95;76.83;101761.31;15876760;28;20118;-58
2020/12/17 18:36:30;;;;;;;1999.90;999.90;;;;;;;9.91;77.20;101763.91;15857610;28;20050;-57
2020/12/17 18:44:03;;;;;;;1999.90;999.90;;;;;;;9.75;76.97;101774.44;15839799;28;20126;-58
2020/12/17 18:51:36;;;;;;;1999.90;999.90;;;;;;;9.64;77.82;101777.69;15856589;28;20047;-57
2020/12/17 18:59:09;;;;;;;1999.90;999.90;;;;;;;9.76;77.25;101792.00;15841103;27;20078;-58
2020/12/17 19:06:46;;;;;;;1999.90;999.90;;;;;;;9.67;77.14;101793.81;15830325;28;20044;-59
2020/12/17 19:14:19;;;;;;;1999.90;999.90;;;;;;;9.37;78.08;101798.66;15852321;28;20142;-61
2020/12/17 19:21:52;;;;;;;1999.90;999.90;;;;;;;9.60;77.03;101805.34;15837146;28;20428;-61
2020/12/17 19:29:25;;;;;;;1999.90;999.90;;;;;;;9.44;77.72;101803.88;15872908;28;20427;-56
2020/12/17 19:36:58;;;;;;;1999.90;999.90;;;;;;;9.42;77.04;101812.53;15887467;27;20038;-60
2020/12/17 19:44:31;;;;;;;1999.90;999.90;;;;;;;9.38;76.74;101816.22;15868948;27;20044;-55
2020/12/17 19:52:05;;;;;;;1999.90;999.90;;;;;;;9.30;76.62;101822.47;15857267;28;20060;-58
2020/12/17 19:59:41;;;;;;;1999.90;999.90;;;;;;;9.35;76.17;101834.34;15848283;28;20043;-55
2020/12/17 20:07:15;;;;;;;1999.90;999.90;;;;;;;9.31;76.03;101827.72;15833720;27;20035;-60
2020/12/17 20:14:49;;;;;;;1999.90;999.90;;;;;;;9.06;76.00;101831.63;15851891;28;20039;-59
2020/12/17 20:22:23;;;;;;;1999.90;999.90;;;;;;;8.68;77.16;101830.66;15849268;28;20031;-60
2020/12/17 20:29:56;;;;;;;1999.90;999.90;;;;;;;8.49;77.64;101838.06;15790728;28;20114;-60
2020/12/17 20:37:30;;;;;;;1999.90;999.90;;;;;;;8.54;77.61;101838.84;15866594;28;20047;-61
2020/12/17 20:45:03;;;;;;;1999.90;999.90;;;;;;;8.35;77.66;101846.28;15839760;28;20392;-60
2020/12/17 20:52:36;;;;;;;1999.90;999.90;;;;;;;8.45;76.76;101845.34;15809324;28;20054;-57
2020/12/17 21:00:10;;;;;;;1999.90;999.90;;;;;;;8.39;76.92;101850.94;15829337;28;20409;-59
2020/12/17 21:07:43;;;;;;;1999.90;999.90;;;;;;;8.38;76.80;101854.84;15837740;28;20405;-59
2020/12/17 21:15:16;;;;;;;1999.90;999.90;;;;;;;8.51;76.33;101852.53;15811884;28;20138;-59
2020/12/17 21:22:50;;;;;;;1999.90;999.90;;;;;;;8.48;77.05;101859.50;15831669;28;20054;-60
2020/12/17 21:30:25;;;;;;;1999.90;999.90;;;;;;;8.60;76.56;101867.47;15822891;28;20124;-60
2020/12/17 21:37:59;;;;;;;1999.90;999.90;;;;;;;8.67;76.76;101866.00;15840734;28;20453;-58
2020/12/17 21:45:32;;;;;;;1999.90;999.90;;;;;;;8.83;76.32;101877.81;15811568;28;20102;-60
2020/12/17 21:53:06;;;;;;;1999.90;999.90;;;;;;;8.83;76.23;101872.25;15827491;28;20524;-59
2020/12/17 22:00:38;;;;;;;1999.90;999.90;;;;;;;8.80;76.47;101888.72;15820420;28;20036;-62
2020/12/17 22:08:13;;;;;;;1999.90;999.90;;;;;;;8.90;76.00;101892.22;15812054;28;20494;-58
2020/12/17 22:15:45;;;;;;;1999.90;999.90;;;;;;;9.00;75.69;101893.25;15831338;28;20055;-61
2020/12/17 22:23:19;;;;;;;1999.90;999.90;;;;;;;8.95;75.75;101896.91;15867106;28;20044;-58
2020/12/17 22:30:51;;;;;;;1999.90;999.90;;;;;;;8.81;75.94;101890.38;15841435;28;20048;-62
2020/12/17 22:38:25;;;;;;;1999.90;999.90;;;;;;;8.63;76.30;101894.69;15841906;28;20044;-61
2020/12/17 22:45:57;;;;;;;1999.90;999.90;;;;;;;8.74;76.05;101895.44;15876131;28;20044;-61
2020/12/17 22:53:31;;;;;;;1999.90;999.90;;;;;;;8.66;76.45;101889.41;15857286;28;20450;-61
2020/12/17 23:01:03;;;;;;;1999.90;999.90;;;;;;;8.64;76.45;101893.56;15875292;28;20086;-63
2020/12/17 23:08:37;;;;;;;1999.90;999.90;;;;;;;8.46;76.68;101889.56;15856480;28;20074;-57
2020/12/17 23:16:10;;;;;;;;;;;;;;;8.62;76.07;101891.09;15875530;28;20044;-59
2020/12/17 23:23:43;;;;;;;1999.90;999.90;;;;;;;8.45;76.10;101895.44;15856386;28;19923;-62
2020/12/17 23:31:18;;;;;;;1999.90;999.90;;;;;;;8.38;76.20;101898.53;15874234;28;20051;-61
2020/12/17 23:38:52;;;;;;;1999.90;999.90;;;;;;;8.50;75.94;101907.34;15873084;28;20051;-61
2020/12/17 23:46:27;;;;;;;1999.90;999.90;;;;;;;8.46;76.07;101903.47;15873674;28;20035;-60
2020/12/17 23:54:00;;;;;;;1999.90;999.90;;;;;;;8.56;76.21;101908.13;15872235;28;20489;-61
